Airfield :
LOGIN :

Register | Disclaimer

   EN    FR    IT 

 










Legend :    VFR   Marginal VFR   IFR   Intensive IFR   Very Intensive IFR
Visi :
Ceiling :
>= 8 km
>= 3000ft
5 to 8 km
1000 to 3000 ft
1500m to 5 km
500 to 1000 ft
800 to 1500m
200 to 500 ft
< 800m
< 200 ft
Symbols :   Thunderstorms  Fog  Heavy snow  Heavy precipitations  Wind > 20 kt
SIGMETs :     Misc.  Thunderstorms  Icing  Turbulence  Mountain Waves  Volcanic Ashes







- Airport Elevation : 622 ft
- IATA code : BRS
- Download approach charts


EGGD - Bristol Int.

CURRENT METAR :
  • 210750Z AUTO 20007KT 9999 FEW009 OVC042 16/13 Q1020

EXPIRED METARs :
  • 210720Z 22010KT 9999 FEW010 SCT041 16/13 Q1020
  • 210650Z 21007KT 9999 FEW011 SCT045 15/13 Q1019
  • 210620Z 20007KT 9999 FEW012 SCT024 15/13 Q1019
  • 210550Z 22007KT 9999 SCT030 14/13 Q1019
  • 210520Z AUTO 22007KT 9999 FEW035/// OVC046/// //////TCU 14/13 Q1019

TAF TAF EGGD
Valid from the 21 at 06:00 until the 22 at 06:00 UTC


210505Z 2106/2206 21004KT 9999 SCT030
BECMG 2109/2112 24014KT
PROB30
TEMPO 2120/2206 24017G27KT
TEMPO 2200/2206 6000 -RA BKN007
PROB30
TEMPO 2203/2206 4000 RA BKN004
ATIS : +44 1275 473 666
No reported NOTAMs for that airfield.



MET'MAP, your aeronautical weather chart ! - Copyright ORBIFLY December 2007 - Disclaimer

ORBIFLY MET'MAP TEAM :

Programming & Development : Alexandra Zaïnal
Concept & Development : Baudouin d'Aumeries
Co-Development & Prog : Marc-Olivier Méhu
Technical & hardware support : Manuel Goepfert

Contact : metmap@orbifly.com




SOURCES & CREDITS :

   NOAA